Flight Track Log - Related Links

Times and Time Zones

All times are in EDT time to prevent confusion due to time zone crossing. See the SWA2169 flight status page for this flight to view local times or setup timezone preferences in your user account.

Time Position Orientation Groundspeed Altitude Reporting Facility
EDT Latitude Longitude Course Direction KTS MPH feet Rate Location/Type
Fri 05:40:16 PM 26.7158 -79.9614 52° Northeast 228 262 5,700  Level Miami Center
Fri 05:41:16 PM 26.7569 -79.8906 57° Northeast 244 281 7,000 1,900 Climbing Miami Center
Fri 05:42:16 PM 26.8106 -79.8197 50° Northeast 279 321 9,500 2,050 Climbing Miami Center
Fri 05:43:16 PM 26.8622 -79.7464 52° Northeast 300 345 11,100 1,900 Climbing Miami Center
Fri 05:44:00 PM 27.2778 -79.8451 52° Northeast  Level Estimated
Fri 05:44:16 PM 26.9247 -79.6547 53° Northeast 344 396 13,300  Level Miami Center
Fri 05:45:16 PM 26.9825 -79.5722 52° Northeast 374 430 15,400 2,150 Climbing Miami Center
Fri 05:46:16 PM 27.0469 -79.4758 53° Northeast 380 437 17,600 2,150 Climbing Miami Center
Fri 05:47:16 PM 27.1242 -79.3678 51° Northeast 393 452 19,700 2,050 Climbing Miami Center
Fri 05:48:16 PM 27.1883 -79.2689 54° Northeast 393 452 21,700 1,650 Climbing Miami Center
Fri 05:49:16 PM 27.2611 -79.1628 52° Northeast 398 458 23,000 1,450 Climbing Miami Center
Fri 05:50:16 PM 27.3231 -79.0731 52° Northeast 412 474 24,600 1,450 Climbing Miami Center
Fri 05:51:16 PM 27.3978 -78.9619 53° Northeast 423 487 25,900 1,350 Climbing Miami Center
Fri 05:52:16 PM 27.4789 -78.8442 52° Northeast 434 499 27,300 1,300 Climbing Miami Center
Fri 05:53:16 PM 27.5597 -78.7331 51° Northeast 439 505 28,500 1,150 Climbing Miami Center
Fri 05:54:16 PM 27.6256 -78.6358 53° Northeast 439 505 29,600 1,300 Climbing Miami Center
Fri 05:55:16 PM 27.7064 -78.5267 50° Northeast 439 505 31,100 1,250 Climbing Miami Center
Fri 05:56:16 PM 27.8175 -78.4861 18° North 420 483 32,100 1,250 Climbing Miami Center
Fri 05:57:16 PM 27.9367 -78.4689 North 416 479 33,600 1,200 Climbing Miami Center
Fri 05:58:16 PM 28.0539 -78.4517 North 411 473 34,500 700 Climbing Miami Center
Fri 05:59:16 PM 28.1689 -78.4344 North 411 473 35,000 250 Climbing Miami Center
Fri 06:00:16 PM 28.2900 -78.4172 North 426 490 35,000 -50 Level Miami Center
Fri 06:01:16 PM 28.4114 -78.4025 North 426 490 34,900  Descending Miami Center
Fri 06:02:16 PM 28.5306 -78.3853 North 421 484 35,000 50 Climbing Miami Center
Fri 06:03:16 PM 28.6456 -78.3678 North 426 490 35,000  Level Miami Center
Fri 06:04:16 PM 28.7667 -78.3531 North 426 490 35,000  Level Miami Center
Fri 06:05:16 PM 28.8836 -78.3331 North 427 491 35,000  Level Miami Center
Fri 06:06:16 PM 29.0008 -78.3158 North 427 491 35,000  Level Miami Center
Fri 06:07:16 PM 29.1239 -78.3008 North 427 491 35,000  Level Miami Center
Fri 06:08:16 PM 29.2411 -78.2833 North 427 491 35,000  Level Miami Center
Fri 06:09:16 PM 29.3600 -78.2658 North 427 491 35,000  Level Miami Center
Fri 06:11:41 PM 29.6489 -78.2258 North 436 502 35,000  Level Jacksonville Center
Fri 06:12:41 PM 29.7625 -78.1917 15° North 431 496 35,000  Level Jacksonville Center
Fri 06:13:41 PM 29.8781 -78.1550 15° North 431 496 35,000  Level Jacksonville Center
Fri 06:14:41 PM 29.9978 -78.1228 13° North 432 497 35,000  Level Jacksonville Center
Fri 06:15:41 PM 30.1111 -78.0836 17° North 427 491 35,000  Level Jacksonville Center
Fri 06:16:41 PM 30.2289 -78.0536 12° North 426 490 35,000  Level Jacksonville Center
Fri 06:17:41 PM 30.3506 -78.0139 16° North 434 499 35,000  Level Jacksonville Center
Fri 06:18:41 PM 30.4636 -77.9719 18° North 439 505 35,000  Level Jacksonville Center
Fri 06:19:41 PM 30.5817 -77.9417 12° North 429 494 35,000  Level Jacksonville Center
Fri 06:20:41 PM 30.6928 -77.9044 16° North 424 488 35,000  Level Jacksonville Center
Fri 06:21:41 PM 30.8042 -77.8719 14° North 419 482 35,000  Level Jacksonville Center
Fri 06:22:41 PM 30.9136 -77.8394 14° North 412 474 35,000  Level Jacksonville Center
Fri 06:23:41 PM 31.0250 -77.8044 15° North 412 474 35,000  Level Jacksonville Center
Fri 06:24:41 PM 31.1342 -77.7694 15° North 412 474 35,000  Level Jacksonville Center
Fri 06:25:41 PM 31.2436 -77.7392 13° North 407 468 35,000  Level Jacksonville Center
Fri 06:26:41 PM 31.3506 -77.7042 16° North 402 463 35,000  Level Jacksonville Center
Fri 06:27:41 PM 31.4575 -77.6667 17° North 402 463 35,000  Level Jacksonville Center
Fri 06:28:41 PM 31.5650 -77.6411 11° North 392 451 35,000  Level Jacksonville Center
Fri 06:29:41 PM 31.6703 -77.6106 14° North 387 445 35,000  Level Jacksonville Center
Fri 06:30:41 PM 31.7753 -77.5753 16° North 393 452 35,000  Level Jacksonville Center
Fri 06:31:41 PM 31.8803 -77.5447 14° North 393 452 35,000  Level Jacksonville Center
Fri 06:32:41 PM 31.9894 -77.5092 15° North 393 452 35,000  Level Jacksonville Center
Fri 06:33:41 PM 32.0944 -77.4761 15° North 393 452 35,000  Level Jacksonville Center
Fri 06:34:41 PM 32.2017 -77.4428 15° North 393 452 35,000  Level Jacksonville Center
Fri 06:35:41 PM 32.3086 -77.4092 15° North 393 452 35,000  Level Jacksonville Center
Fri 06:36:41 PM 32.4136 -77.3758 15° North 393 452 35,000  Level Jacksonville Center
Fri 06:37:41 PM 32.5186 -77.3400 16° North 393 452 35,000  Level Jacksonville Center
Fri 06:38:41 PM 32.6256 -77.3086 14° North 393 452 35,000  Level Jacksonville Center
Fri 06:39:41 PM 32.7408 -77.2719 15° North 393 452 35,000  Level Jacksonville Center
Fri 06:42:06 PM 32.9806 -77.1956 15° North 396 456 35,000  Level Washington Center
Fri 06:43:03 PM 33.0853 -77.1631 15° North 401 461 35,000  Level Washington Center
Fri 06:44:05 PM 33.1919 -77.1303 14° North 396 456 35,000  Level Washington Center
Fri 06:45:05 PM 33.2967 -77.0947 16° North 396 456 35,000  Level Washington Center
Fri 06:46:03 PM 33.4014 -77.0619 15° North 396 456 35,000  Level Washington Center
Fri 06:47:03 PM 33.5081 -77.0264 16° North 396 456 35,000  Level Washington Center
Fri 06:48:04 PM 33.6169 -76.9933 14° North 396 456 35,000  Level Washington Center
Fri 06:49:03 PM 33.7239 -76.9578 15° North 396 456 35,000  Level Washington Center
Fri 06:50:03 PM 33.8286 -76.9244 15° North 396 456 35,000  Level Washington Center
Fri 06:51:04 PM 33.9478 -76.8839 16° North 396 456 35,000  Level Washington Center
Fri 06:52:04 PM 34.0567 -76.8481 15° North 396 456 35,000  Level Washington Center
Fri 06:53:04 PM 34.1656 -76.8119 15° North 396 456 35,000  Level Washington Center
Fri 06:54:05 PM 34.2703 -76.7758 16° North 396 456 35,000  Level Washington Center
Fri 06:55:03 PM 34.3811 -76.7394 15° North 396 456 35,000  Level Washington Center
Fri 06:56:04 PM 34.4922 -76.7058 14° North 396 456 35,000  Level Washington Center
Fri 06:57:05 PM 34.5967 -76.6694 16° North 396 456 35,000  Level Washington Center
Fri 06:58:03 PM 34.7056 -76.6331 15° North 396 456 35,000  Level Washington Center
Fri 06:59:04 PM 34.8122 -76.5989 15° North 396 456 35,000  Level Washington Center
Fri 07:00:04 PM 34.9189 -76.5622 16° North 396 456 35,000  Level Washington Center
Fri 07:01:04 PM 35.0278 -76.5281 14° North 396 456 35,000  Level Washington Center
Fri 07:02:05 PM 35.1239 -76.4936 16° North 396 456 35,000  Level Washington Center
Fri 07:03:05 PM 35.2286 -76.4542 17° North 391 450 35,000  Level Washington Center
Fri 07:04:03 PM 35.3333 -76.4169 16° North 391 450 35,000  Level Washington Center
Fri 07:05:04 PM 35.4419 -76.3825 14° North 391 450 35,000  Level Washington Center
Fri 07:06:05 PM 35.5486 -76.3453 16° North 396 456 35,000  Level Washington Center
Fri 07:07:03 PM 35.6572 -76.3103 15° North 396 456 35,000  Level Washington Center
Fri 07:08:03 PM 35.7661 -76.2756 15° North 396 456 35,000  Level Washington Center
Fri 07:09:04 PM 35.8747 -76.2356 17° North 396 456 35,000  Level Washington Center
Fri 07:10:05 PM 35.9833 -76.1978 16° North 396 456 35,000  Level Washington Center
Fri 07:11:03 PM 36.0900 -76.1653 14° North 396 456 35,000  Level Washington Center
Fri 07:12:03 PM 36.1986 -76.1247 17° North 396 456 35,000  Level Washington Center
Fri 07:13:05 PM 36.3053 -76.0894 15° North 396 456 35,000  Level Washington Center
Fri 07:14:03 PM 36.4139 -76.0514 16° North 396 456 35,000  Level Washington Center
Fri 07:15:03 PM 36.5203 -76.0519 360° North 396 456 35,000  Level Washington Center
Fri 07:16:04 PM 36.6181 -76.1275 328° Northwest 379 436 35,000  Level Washington Center
Fri 07:17:05 PM 36.7242 -76.1983 332° Northwest 379 436 35,000  Level Washington Center
Fri 07:18:03 PM 36.8136 -76.2483 336° Northwest 388 447 35,000  Level Washington Center
Fri 07:19:05 PM 36.9161 -76.1919 24° Northeast 366 421 35,000  Level Washington Center
Fri 07:20:05 PM 37.0311 -76.1225 26° Northeast 385 443 35,000  Level Washington Center
Fri 07:21:03 PM 37.1336 -76.0608 26° Northeast 397 457 35,000  Level Washington Center
Fri 07:22:04 PM 37.2339 -75.9961 27° Northeast 403 464 35,000  Level Washington Center
Fri 07:23:05 PM 37.3342 -75.9314 27° Northeast 403 464 35,000  Level Washington Center
Fri 07:24:05 PM 37.4367 -75.8692 26° Northeast 403 464 35,000  Level Washington Center
Fri 07:25:03 PM 37.5369 -75.8067 26° Northeast 403 464 35,000  Level Washington Center
Fri 07:26:04 PM 37.6369 -75.7414 27° Northeast 403 464 35,000  Level Washington Center
Fri 07:27:04 PM 37.7414 -75.6758 26° Northeast 403 464 35,000  Level Washington Center
Fri 07:28:04 PM 37.8436 -75.6128 26° Northeast 403 464 35,000  Level Washington Center
Fri 07:29:05 PM 37.9458 -75.5497 26° Northeast 403 464 35,000  Level Washington Center
Fri 07:30:03 PM 38.0500 -75.4811 27° Northeast 403 464 35,000  Level Washington Center
Fri 07:31:04 PM 38.1439 -75.3989 35° Northeast 403 464 35,000  Level Washington Center
Fri 07:32:06 PM 38.2394 -75.3169 34° Northeast 409 471 35,000  Level Washington Center
Fri 07:33:03 PM 38.3311 -75.2344 35° Northeast 409 471 35,000  Level Washington Center
Fri 07:34:04 PM 38.4267 -75.1411 37° Northeast 414 476 35,000  Level Washington Center
Fri 07:35:04 PM 38.5222 -75.0608 33° Northeast 414 476 35,000  Level Washington Center
Fri 07:36:04 PM 38.6178 -74.9725 36° Northeast 414 476 35,000  Level Washington Center
Fri 07:37:05 PM 38.7131 -74.8786 38° Northeast 414 476 35,000  Level Washington Center
Fri 07:38:05 PM 38.8083 -74.7950 34° Northeast 420 483 35,000  Level Washington Center
Fri 07:39:04 PM 38.9036 -74.7086 35° Northeast 420 483 35,000 -160 Level Washington Center
Fri 07:41:12 PM 39.0986 -74.5350 35° Northeast 424 488 34,500 -1,048 Descending New York Center
Fri 07:42:13 PM 39.1931 -74.4489 35° Northeast 418 481 31,700 -3,025 Descending New York Center
Fri 07:43:13 PM 39.2897 -74.3625 35° Northeast 418 481 28,400 -3,378 Descending New York Center
Fri 07:44:12 PM 39.3883 -74.2708 36° Northeast 418 481 25,000 -3,074 Descending New York Center
Fri 07:45:14 PM 39.4786 -74.1839 37° Northeast 418 481 22,200 -2,115 Descending New York Center
Fri 07:46:14 PM 39.5631 -74.0669 47° Northeast 404 465 20,700 -1,475 Descending New York Center
Fri 07:47:12 PM 39.6156 -73.9803 52° Northeast 392 451 19,300 -1,361 Descending New York Center
Fri 07:48:13 PM 39.6897 -73.8625 51° Northeast 386 444 18,000 -1,041 Descending New York Center
Fri 07:49:13 PM 39.7856 -73.7803 33° Northeast 367 422 17,200 -496 Descending New York Center
Fri 07:50:14 PM 39.8792 -73.7058 31° Northeast 375 432 17,000 -99 Descending New York Center
Fri 07:51:14 PM 39.9483 -73.6086 47° Northeast 375 432 17,000 -750 Level New York Center
Fri 07:52:54 PM 40.0578 -73.4567 47° Northeast 426 490 15,000 -1,671 Descending Boston Center
Fri 07:53:52 PM 40.1272 -73.3628 46° Northeast 378 435 12,600 -2,186 Descending Boston Center
Fri 07:54:52 PM 40.1906 -73.2686 49° Northeast 356 410 10,700 -1,250 Descending Boston Center
Fri 07:55:52 PM 40.2494 -73.1906 45° Northeast 322 371 10,100 -843 Descending Boston Center
Fri 07:56:53 PM 40.3019 -73.1147 48° Northeast 290 334 9,000 -1,223 Descending Boston Center
Fri 07:59:18 PM 40.4500 -73.0000 31° Northeast 251 289 5,900 -1,417 Descending New York TRACON
Fri 08:00:12 PM 40.5167 -72.9667 21° North 263 303 4,300 -1,000 Descending New York TRACON
Fri 08:01:12 PM 40.5833 -72.9833 349° North 258 297 4,000 -619 Descending New York TRACON
Fri 08:02:18 PM 40.6167 -73.0667 298° West 247 284 3,000 -952 Descending New York TRACON
Fri 08:03:18 PM 40.6333 -73.1500 285° West 243 280 2,000 -500 Descending New York TRACON
Fri 08:04:18 PM 40.6667 -73.2000 311° West 176 203 2,000 50 Level New York TRACON
Fri 08:05:18 PM 40.7167 -73.2167 346° North 161 185 2,100 -250 Climbing New York TRACON
Fri 08:06:18 PM 40.7333 -73.1833 57° Northeast 136 157 1,500 -650 Descending New York TRACON
Fri 08:07:18 PM 40.7667 -73.1500 37° Northeast 128 147 800 -700 Descending New York TRACON

Login

Don't have an account? Register now (free) for customized features, flight alerts, and more!